sensor_id;sensor_type;location;lat;lon;timestamp;P1;durP1;ratioP1;P2;durP2;ratioP2
35803;SDS011;21924;51.934;7.414;2022-07-23T00:00:41;11.63;;;5.07;;
35803;SDS011;21924;51.934;7.414;2022-07-23T00:03:25;6.40;;;4.80;;
35803;SDS011;21924;51.934;7.414;2022-07-23T00:06:10;11.52;;;4.97;;
35803;SDS011;21924;51.934;7.414;2022-07-23T00:08:54;15.45;;;5.07;;
35803;SDS011;21924;51.934;7.414;2022-07-23T00:11:38;10.70;;;5.75;;
35803;SDS011;21924;51.934;7.414;2022-07-23T00:14:23;12.88;;;6.25;;
35803;SDS011;21924;51.934;7.414;2022-07-23T00:17:07;9.95;;;5.45;;
35803;SDS011;21924;51.934;7.414;2022-07-23T00:19:52;13.40;;;6.15;;
35803;SDS011;21924;51.934;7.414;2022-07-23T00:22:44;11.85;;;5.88;;
35803;SDS011;21924;51.934;7.414;2022-07-23T00:25:39;14.18;;;5.90;;
35803;SDS011;21924;51.934;7.414;2022-07-23T00:28:23;9.80;;;5.50;;
35803;SDS011;21924;51.934;7.414;2022-07-23T00:31:07;10.75;;;6.00;;
35803;SDS011;21924;51.934;7.414;2022-07-23T00:33:51;13.20;;;6.20;;
35803;SDS011;21924;51.934;7.414;2022-07-23T00:36:39;14.45;;;6.28;;
35803;SDS011;21924;51.934;7.414;2022-07-23T00:39:25;14.73;;;6.20;;
35803;SDS011;21924;51.934;7.414;2022-07-23T00:42:09;11.90;;;6.60;;
35803;SDS011;21924;51.934;7.414;2022-07-23T00:44:53;17.42;;;6.70;;
35803;SDS011;21924;51.934;7.414;2022-07-23T00:47:38;13.55;;;6.03;;
35803;SDS011;21924;51.934;7.414;2022-07-23T00:50:22;11.68;;;7.32;;
35803;SDS011;21924;51.934;7.414;2022-07-23T00:53:07;10.27;;;6.28;;
35803;SDS011;21924;51.934;7.414;2022-07-23T00:55:52;11.60;;;7.03;;
35803;SDS011;21924;51.934;7.414;2022-07-23T00:58:37;15.95;;;6.55;;
35803;SDS011;21924;51.934;7.414;2022-07-23T01:01:26;15.52;;;7.47;;
35803;SDS011;21924;51.934;7.414;2022-07-23T01:04:10;10.90;;;7.05;;
35803;SDS011;21924;51.934;7.414;2022-07-23T01:06:54;11.60;;;6.60;;
35803;SDS011;21924;51.934;7.414;2022-07-23T01:09:39;12.90;;;5.95;;
35803;SDS011;21924;51.934;7.414;2022-07-23T01:12:24;12.30;;;6.32;;
35803;SDS011;21924;51.934;7.414;2022-07-23T01:15:08;10.35;;;6.57;;
35803;SDS011;21924;51.934;7.414;2022-07-23T01:17:53;12.77;;;6.78;;
35803;SDS011;21924;51.934;7.414;2022-07-23T01:20:37;15.38;;;6.95;;
35803;SDS011;21924;51.934;7.414;2022-07-23T01:23:22;10.48;;;6.85;;
35803;SDS011;21924;51.934;7.414;2022-07-23T01:26:06;16.00;;;7.22;;
35803;SDS011;21924;51.934;7.414;2022-07-23T01:28:50;13.52;;;7.30;;
35803;SDS011;21924;51.934;7.414;2022-07-23T01:31:34;12.82;;;6.95;;
35803;SDS011;21924;51.934;7.414;2022-07-23T01:34:19;13.25;;;7.20;;
35803;SDS011;21924;51.934;7.414;2022-07-23T01:37:03;13.68;;;7.35;;
35803;SDS011;21924;51.934;7.414;2022-07-23T01:39:47;13.20;;;7.57;;
35803;SDS011;21924;51.934;7.414;2022-07-23T01:42:32;14.88;;;7.25;;
35803;SDS011;21924;51.934;7.414;2022-07-23T01:45:16;15.18;;;7.85;;
35803;SDS011;21924;51.934;7.414;2022-07-23T01:48:00;15.15;;;7.65;;
35803;SDS011;21924;51.934;7.414;2022-07-23T01:50:45;17.92;;;7.93;;
35803;SDS011;21924;51.934;7.414;2022-07-23T01:53:30;13.13;;;7.35;;
35803;SDS011;21924;51.934;7.414;2022-07-23T01:56:14;12.90;;;7.60;;
35803;SDS011;21924;51.934;7.414;2022-07-23T01:58:58;11.35;;;7.53;;
35803;SDS011;21924;51.934;7.414;2022-07-23T02:01:42;18.55;;;8.45;;
35803;SDS011;21924;51.934;7.414;2022-07-23T02:04:27;14.50;;;7.82;;
35803;SDS011;21924;51.934;7.414;2022-07-23T02:07:11;13.15;;;7.25;;
35803;SDS011;21924;51.934;7.414;2022-07-23T02:09:56;15.20;;;8.50;;
35803;SDS011;21924;51.934;7.414;2022-07-23T02:12:41;14.68;;;8.00;;
35803;SDS011;21924;51.934;7.414;2022-07-23T02:15:25;12.07;;;7.03;;
35803;SDS011;21924;51.934;7.414;2022-07-23T02:18:09;18.65;;;7.75;;
35803;SDS011;21924;51.934;7.414;2022-07-23T02:20:54;12.52;;;7.55;;
35803;SDS011;21924;51.934;7.414;2022-07-23T02:23:38;15.13;;;7.97;;
35803;SDS011;21924;51.934;7.414;2022-07-23T02:26:22;13.93;;;7.35;;
35803;SDS011;21924;51.934;7.414;2022-07-23T02:29:07;16.02;;;8.23;;
35803;SDS011;21924;51.934;7.414;2022-07-23T02:31:51;13.38;;;7.82;;
35803;SDS011;21924;51.934;7.414;2022-07-23T02:34:36;15.18;;;8.07;;
35803;SDS011;21924;51.934;7.414;2022-07-23T02:37:20;17.98;;;8.00;;
35803;SDS011;21924;51.934;7.414;2022-07-23T02:40:05;14.98;;;7.90;;
35803;SDS011;21924;51.934;7.414;2022-07-23T02:42:49;15.02;;;8.52;;
35803;SDS011;21924;51.934;7.414;2022-07-23T02:45:33;12.77;;;7.47;;
35803;SDS011;21924;51.934;7.414;2022-07-23T02:48:18;16.30;;;8.95;;
35803;SDS011;21924;51.934;7.414;2022-07-23T02:51:02;16.02;;;8.63;;
35803;SDS011;21924;51.934;7.414;2022-07-23T02:53:47;18.75;;;9.60;;
35803;SDS011;21924;51.934;7.414;2022-07-23T02:56:31;14.00;;;7.40;;
35803;SDS011;21924;51.934;7.414;2022-07-23T02:59:15;15.68;;;8.07;;
35803;SDS011;21924;51.934;7.414;2022-07-23T03:01:59;14.55;;;8.25;;
35803;SDS011;21924;51.934;7.414;2022-07-23T03:04:44;15.48;;;8.60;;
35803;SDS011;21924;51.934;7.414;2022-07-23T03:07:28;16.80;;;8.07;;
35803;SDS011;21924;51.934;7.414;2022-07-23T03:10:12;13.85;;;7.68;;
35803;SDS011;21924;51.934;7.414;2022-07-23T03:12:56;11.85;;;7.82;;
35803;SDS011;21924;51.934;7.414;2022-07-23T03:15:41;14.77;;;7.00;;
35803;SDS011;21924;51.934;7.414;2022-07-23T03:18:25;15.10;;;7.65;;
35803;SDS011;21924;51.934;7.414;2022-07-23T03:21:09;22.98;;;7.50;;
35803;SDS011;21924;51.934;7.414;2022-07-23T03:23:54;16.23;;;8.07;;
35803;SDS011;21924;51.934;7.414;2022-07-23T03:26:38;16.83;;;8.48;;
35803;SDS011;21924;51.934;7.414;2022-07-23T03:29:23;16.25;;;9.35;;
35803;SDS011;21924;51.934;7.414;2022-07-23T03:32:08;17.48;;;8.07;;
35803;SDS011;21924;51.934;7.414;2022-07-23T03:34:52;14.55;;;8.48;;
35803;SDS011;21924;51.934;7.414;2022-07-23T03:37:36;16.23;;;7.30;;
35803;SDS011;21924;51.934;7.414;2022-07-23T03:40:21;19.05;;;6.65;;
35803;SDS011;21924;51.934;7.414;2022-07-23T03:43:05;14.57;;;6.30;;
35803;SDS011;21924;51.934;7.414;2022-07-23T03:45:50;11.63;;;6.78;;
35803;SDS011;21924;51.934;7.414;2022-07-23T03:48:34;11.30;;;6.70;;
35803;SDS011;21924;51.934;7.414;2022-07-23T03:51:19;11.85;;;6.47;;
35803;SDS011;21924;51.934;7.414;2022-07-23T03:54:03;16.90;;;7.28;;
35803;SDS011;21924;51.934;7.414;2022-07-23T03:56:47;19.65;;;7.20;;
35803;SDS011;21924;51.934;7.414;2022-07-23T03:59:32;10.15;;;6.70;;
35803;SDS011;21924;51.934;7.414;2022-07-23T04:02:16;13.55;;;7.32;;
35803;SDS011;21924;51.934;7.414;2022-07-23T04:05:00;13.32;;;6.57;;
35803;SDS011;21924;51.934;7.414;2022-07-23T04:07:44;16.27;;;6.43;;
35803;SDS011;21924;51.934;7.414;2022-07-23T04:10:29;11.60;;;6.05;;
35803;SDS011;21924;51.934;7.414;2022-07-23T04:13:14;12.65;;;5.85;;
35803;SDS011;21924;51.934;7.414;2022-07-23T04:15:59;10.93;;;5.75;;
35803;SDS011;21924;51.934;7.414;2022-07-23T04:18:43;9.38;;;5.55;;
35803;SDS011;21924;51.934;7.414;2022-07-23T04:21:27;12.00;;;5.68;;
35803;SDS011;21924;51.934;7.414;2022-07-23T04:24:11;10.65;;;6.20;;
35803;SDS011;21924;51.934;7.414;2022-07-23T04:26:56;9.63;;;5.63;;
35803;SDS011;21924;51.934;7.414;2022-07-23T04:29:40;13.15;;;5.72;;
35803;SDS011;21924;51.934;7.414;2022-07-23T04:32:24;14.77;;;5.75;;
35803;SDS011;21924;51.934;7.414;2022-07-23T04:35:09;9.30;;;5.32;;
35803;SDS011;21924;51.934;7.414;2022-07-23T04:37:53;9.30;;;5.47;;
35803;SDS011;21924;51.934;7.414;2022-07-23T04:40:37;23.88;;;6.78;;
35803;SDS011;21924;51.934;7.414;2022-07-23T04:43:22;7.53;;;5.15;;
35803;SDS011;21924;51.934;7.414;2022-07-23T04:46:06;7.97;;;4.90;;
35803;SDS011;21924;51.934;7.414;2022-07-23T04:48:50;13.05;;;4.97;;
35803;SDS011;21924;51.934;7.414;2022-07-23T04:51:34;18.38;;;5.25;;
35803;SDS011;21924;51.934;7.414;2022-07-23T04:54:18;10.80;;;4.75;;
35803;SDS011;21924;51.934;7.414;2022-07-23T04:57:03;11.00;;;5.05;;
35803;SDS011;21924;51.934;7.414;2022-07-23T04:59:47;12.75;;;5.72;;
35803;SDS011;21924;51.934;7.414;2022-07-23T05:02:31;9.10;;;3.95;;
35803;SDS011;21924;51.934;7.414;2022-07-23T05:05:16;8.18;;;4.22;;
35803;SDS011;21924;51.934;7.414;2022-07-23T05:08:00;7.70;;;4.28;;
35803;SDS011;21924;51.934;7.414;2022-07-23T05:10:44;12.10;;;4.55;;
35803;SDS011;21924;51.934;7.414;2022-07-23T05:13:29;9.13;;;4.30;;
35803;SDS011;21924;51.934;7.414;2022-07-23T05:16:14;8.63;;;4.60;;
35803;SDS011;21924;51.934;7.414;2022-07-23T05:18:58;8.98;;;5.22;;
35803;SDS011;21924;51.934;7.414;2022-07-23T05:21:42;10.07;;;5.70;;
35803;SDS011;21924;51.934;7.414;2022-07-23T05:24:26;24.17;;;6.97;;
35803;SDS011;21924;51.934;7.414;2022-07-23T05:27:11;13.07;;;6.53;;
35803;SDS011;21924;51.934;7.414;2022-07-23T05:29:55;15.35;;;5.85;;
35803;SDS011;21924;51.934;7.414;2022-07-23T05:32:39;15.20;;;6.70;;
35803;SDS011;21924;51.934;7.414;2022-07-23T05:35:23;17.17;;;6.72;;
35803;SDS011;21924;51.934;7.414;2022-07-23T05:38:08;14.38;;;5.70;;
35803;SDS011;21924;51.934;7.414;2022-07-23T05:40:52;12.23;;;6.32;;
35803;SDS011;21924;51.934;7.414;2022-07-23T05:43:36;12.55;;;6.43;;
35803;SDS011;21924;51.934;7.414;2022-07-23T05:46:21;21.05;;;7.32;;
35803;SDS011;21924;51.934;7.414;2022-07-23T05:49:05;14.15;;;6.57;;
35803;SDS011;21924;51.934;7.414;2022-07-23T05:51:49;15.70;;;6.28;;
35803;SDS011;21924;51.934;7.414;2022-07-23T05:54:34;19.10;;;7.18;;
35803;SDS011;21924;51.934;7.414;2022-07-23T05:57:19;15.00;;;6.70;;
35803;SDS011;21924;51.934;7.414;2022-07-23T06:00:04;15.13;;;7.28;;
35803;SDS011;21924;51.934;7.414;2022-07-23T06:02:49;13.10;;;6.43;;
35803;SDS011;21924;51.934;7.414;2022-07-23T06:05:34;15.32;;;7.28;;
35803;SDS011;21924;51.934;7.414;2022-07-23T06:08:19;10.55;;;6.15;;
35803;SDS011;21924;51.934;7.414;2022-07-23T06:11:03;18.75;;;7.43;;
35803;SDS011;21924;51.934;7.414;2022-07-23T06:13:47;15.73;;;6.95;;
35803;SDS011;21924;51.934;7.414;2022-07-23T06:16:31;16.95;;;7.10;;
35803;SDS011;21924;51.934;7.414;2022-07-23T06:19:16;18.05;;;6.95;;
35803;SDS011;21924;51.934;7.414;2022-07-23T06:22:00;11.95;;;6.60;;
35803;SDS011;21924;51.934;7.414;2022-07-23T06:24:44;13.38;;;6.55;;
35803;SDS011;21924;51.934;7.414;2022-07-23T06:27:28;11.88;;;6.97;;
35803;SDS011;21924;51.934;7.414;2022-07-23T06:30:13;12.25;;;6.70;;
35803;SDS011;21924;51.934;7.414;2022-07-23T06:33:00;13.63;;;6.60;;
35803;SDS011;21924;51.934;7.414;2022-07-23T06:35:44;13.13;;;6.38;;
35803;SDS011;21924;51.934;7.414;2022-07-23T06:38:28;9.20;;;5.88;;
35803;SDS011;21924;51.934;7.414;2022-07-23T06:41:13;15.10;;;5.53;;
35803;SDS011;21924;51.934;7.414;2022-07-23T06:43:57;12.63;;;5.82;;
35803;SDS011;21924;51.934;7.414;2022-07-23T06:46:41;11.35;;;5.03;;
35803;SDS011;21924;51.934;7.414;2022-07-23T06:49:26;10.68;;;4.97;;
35803;SDS011;21924;51.934;7.414;2022-07-23T06:52:10;9.25;;;4.97;;
35803;SDS011;21924;51.934;7.414;2022-07-23T06:54:54;9.57;;;4.45;;
35803;SDS011;21924;51.934;7.414;2022-07-23T06:57:38;10.05;;;4.93;;
35803;SDS011;21924;51.934;7.414;2022-07-23T07:00:23;11.10;;;4.47;;
35803;SDS011;21924;51.934;7.414;2022-07-23T07:03:10;7.95;;;4.78;;
35803;SDS011;21924;51.934;7.414;2022-07-23T07:05:54;10.00;;;4.72;;
35803;SDS011;21924;51.934;7.414;2022-07-23T07:08:38;8.27;;;4.93;;
35803;SDS011;21924;51.934;7.414;2022-07-23T07:11:22;9.00;;;4.47;;
35803;SDS011;21924;51.934;7.414;2022-07-23T07:14:08;10.73;;;4.93;;
35803;SDS011;21924;51.934;7.414;2022-07-23T07:16:52;7.00;;;4.85;;
35803;SDS011;21924;51.934;7.414;2022-07-23T07:19:37;4.88;;;3.53;;
35803;SDS011;21924;51.934;7.414;2022-07-23T07:22:21;6.78;;;3.50;;
35803;SDS011;21924;51.934;7.414;2022-07-23T07:25:06;8.25;;;3.95;;
35803;SDS011;21924;51.934;7.414;2022-07-23T07:27:51;8.38;;;4.00;;
35803;SDS011;21924;51.934;7.414;2022-07-23T07:30:35;7.03;;;3.15;;
35803;SDS011;21924;51.934;7.414;2022-07-23T07:33:19;5.75;;;3.47;;
35803;SDS011;21924;51.934;7.414;2022-07-23T07:36:04;6.72;;;3.50;;
35803;SDS011;21924;51.934;7.414;2022-07-23T07:38:49;6.22;;;3.17;;
35803;SDS011;21924;51.934;7.414;2022-07-23T07:41:33;5.82;;;3.25;;
35803;SDS011;21924;51.934;7.414;2022-07-23T07:44:17;3.67;;;2.90;;
35803;SDS011;21924;51.934;7.414;2022-07-23T07:47:01;9.65;;;3.10;;
35803;SDS011;21924;51.934;7.414;2022-07-23T07:49:46;8.25;;;3.65;;
35803;SDS011;21924;51.934;7.414;2022-07-23T07:52:30;8.80;;;3.40;;
35803;SDS011;21924;51.934;7.414;2022-07-23T07:55:14;9.25;;;2.95;;
35803;SDS011;21924;51.934;7.414;2022-07-23T07:57:59;6.45;;;2.60;;
35803;SDS011;21924;51.934;7.414;2022-07-23T08:00:44;4.85;;;2.30;;
35803;SDS011;21924;51.934;7.414;2022-07-23T08:03:28;6.82;;;2.25;;
35803;SDS011;21924;51.934;7.414;2022-07-23T08:06:13;5.07;;;2.38;;
35803;SDS011;21924;51.934;7.414;2022-07-23T08:08:57;4.85;;;2.58;;
35803;SDS011;21924;51.934;7.414;2022-07-23T08:11:41;11.93;;;2.47;;
35803;SDS011;21924;51.934;7.414;2022-07-23T08:14:25;5.47;;;3.67;;
35803;SDS011;21924;51.934;7.414;2022-07-23T08:17:10;7.35;;;3.13;;
35803;SDS011;21924;51.934;7.414;2022-07-23T08:19:54;6.38;;;2.70;;
35803;SDS011;21924;51.934;7.414;2022-07-23T08:22:45;4.63;;;3.33;;
35803;SDS011;21924;51.934;7.414;2022-07-23T08:25:37;5.13;;;3.47;;
35803;SDS011;21924;51.934;7.414;2022-07-23T08:28:23;5.88;;;2.90;;
35803;SDS011;21924;51.934;7.414;2022-07-23T08:31:07;7.53;;;3.22;;
35803;SDS011;21924;51.934;7.414;2022-07-23T08:33:51;7.25;;;3.38;;
35803;SDS011;21924;51.934;7.414;2022-07-23T08:36:36;9.15;;;3.35;;
35803;SDS011;21924;51.934;7.414;2022-07-23T08:39:20;6.55;;;2.80;;
35803;SDS011;21924;51.934;7.414;2022-07-23T08:42:05;3.80;;;2.45;;
35803;SDS011;21924;51.934;7.414;2022-07-23T08:44:51;3.78;;;2.05;;
35803;SDS011;21924;51.934;7.414;2022-07-23T08:47:36;4.10;;;2.65;;
35803;SDS011;21924;51.934;7.414;2022-07-23T08:50:22;3.33;;;2.17;;
35803;SDS011;21924;51.934;7.414;2022-07-23T08:53:07;5.65;;;2.60;;
35803;SDS011;21924;51.934;7.414;2022-07-23T08:55:52;6.00;;;2.50;;
35803;SDS011;21924;51.934;7.414;2022-07-23T08:58:38;5.65;;;2.28;;
35803;SDS011;21924;51.934;7.414;2022-07-23T09:01:22;5.82;;;2.30;;
35803;SDS011;21924;51.934;7.414;2022-07-23T09:04:06;5.60;;;2.53;;
35803;SDS011;21924;51.934;7.414;2022-07-23T09:06:51;4.50;;;2.40;;
35803;SDS011;21924;51.934;7.414;2022-07-23T09:09:35;5.32;;;2.92;;
35803;SDS011;21924;51.934;7.414;2022-07-23T09:12:19;7.47;;;2.28;;
35803;SDS011;21924;51.934;7.414;2022-07-23T09:15:04;3.28;;;2.20;;
35803;SDS011;21924;51.934;7.414;2022-07-23T09:17:52;3.30;;;2.47;;
35803;SDS011;21924;51.934;7.414;2022-07-23T09:20:37;4.35;;;2.45;;
35803;SDS011;21924;51.934;7.414;2022-07-23T09:23:26;2.70;;;2.00;;
35803;SDS011;21924;51.934;7.414;2022-07-23T09:29:18;3.63;;;2.72;;
35803;SDS011;21924;51.934;7.414;2022-07-23T09:32:02;5.60;;;1.92;;
35803;SDS011;21924;51.934;7.414;2022-07-23T09:34:49;6.97;;;2.80;;
35803;SDS011;21924;51.934;7.414;2022-07-23T09:37:33;5.32;;;2.00;;
35803;SDS011;21924;51.934;7.414;2022-07-23T09:40:18;3.17;;;1.90;;
35803;SDS011;21924;51.934;7.414;2022-07-23T09:43:03;5.78;;;2.22;;
35803;SDS011;21924;51.934;7.414;2022-07-23T09:45:48;3.78;;;2.38;;
35803;SDS011;21924;51.934;7.414;2022-07-23T09:48:32;5.97;;;2.20;;
35803;SDS011;21924;51.934;7.414;2022-07-23T09:51:17;6.60;;;1.95;;
35803;SDS011;21924;51.934;7.414;2022-07-23T09:54:08;8.80;;;1.90;;
35803;SDS011;21924;51.934;7.414;2022-07-23T09:57:08;4.20;;;2.20;;
35803;SDS011;21924;51.934;7.414;2022-07-23T10:00:00;2.58;;;2.13;;
35803;SDS011;21924;51.934;7.414;2022-07-23T10:02:46;5.13;;;1.40;;
35803;SDS011;21924;51.934;7.414;2022-07-23T10:05:31;4.22;;;1.80;;
35803;SDS011;21924;51.934;7.414;2022-07-23T10:08:18;3.60;;;1.85;;
35803;SDS011;21924;51.934;7.414;2022-07-23T10:11:02;6.90;;;1.80;;
35803;SDS011;21924;51.934;7.414;2022-07-23T10:13:47;6.05;;;2.08;;
35803;SDS011;21924;51.934;7.414;2022-07-23T10:16:34;3.58;;;1.60;;
35803;SDS011;21924;51.934;7.414;2022-07-23T10:19:18;4.88;;;1.58;;
35803;SDS011;21924;51.934;7.414;2022-07-23T10:22:03;2.70;;;1.73;;
35803;SDS011;21924;51.934;7.414;2022-07-23T10:28:04;1.90;;;1.40;;
35803;SDS011;21924;51.934;7.414;2022-07-23T10:31:13;2.03;;;1.17;;
35803;SDS011;21924;51.934;7.414;2022-07-23T10:40:19;4.38;;;1.33;;
35803;SDS011;21924;51.934;7.414;2022-07-23T10:43:05;2.70;;;1.35;;
35803;SDS011;21924;51.934;7.414;2022-07-23T10:49:29;4.03;;;1.55;;
35803;SDS011;21924;51.934;7.414;2022-07-23T10:57:52;1.48;;;1.38;;
35803;SDS011;21924;51.934;7.414;2022-07-23T11:00:37;2.10;;;1.30;;
35803;SDS011;21924;51.934;7.414;2022-07-23T11:03:28;2.55;;;1.17;;
35803;SDS011;21924;51.934;7.414;2022-07-23T11:06:20;1.90;;;1.25;;
35803;SDS011;21924;51.934;7.414;2022-07-23T11:09:25;2.58;;;1.63;;
35803;SDS011;21924;51.934;7.414;2022-07-23T11:20:36;2.58;;;1.40;;
35803;SDS011;21924;51.934;7.414;2022-07-23T11:23:21;3.33;;;1.45;;
35803;SDS011;21924;51.934;7.414;2022-07-23T11:26:05;4.00;;;1.38;;
35803;SDS011;21924;51.934;7.414;2022-07-23T11:28:49;8.48;;;1.33;;
35803;SDS011;21924;51.934;7.414;2022-07-23T11:31:34;1.90;;;1.25;;
35803;SDS011;21924;51.934;7.414;2022-07-23T11:37:32;4.55;;;1.60;;
35803;SDS011;21924;51.934;7.414;2022-07-23T11:40:21;3.38;;;1.10;;
35803;SDS011;21924;51.934;7.414;2022-07-23T11:43:06;1.55;;;1.10;;
35803;SDS011;21924;51.934;7.414;2022-07-23T11:45:53;5.03;;;1.17;;
35803;SDS011;21924;51.934;7.414;2022-07-23T11:48:40;1.42;;;0.95;;
35803;SDS011;21924;51.934;7.414;2022-07-23T11:51:25;3.83;;;1.30;;
35803;SDS011;21924;51.934;7.414;2022-07-23T11:54:10;3.38;;;1.23;;
35803;SDS011;21924;51.934;7.414;2022-07-23T11:56:55;1.63;;;1.20;;
35803;SDS011;21924;51.934;7.414;2022-07-23T11:59:40;6.65;;;1.48;;
35803;SDS011;21924;51.934;7.414;2022-07-23T12:02:25;4.10;;;1.40;;
35803;SDS011;21924;51.934;7.414;2022-07-23T12:05:13;2.70;;;1.25;;
35803;SDS011;21924;51.934;7.414;2022-07-23T12:07:59;6.68;;;1.20;;
35803;SDS011;21924;51.934;7.414;2022-07-23T12:10:46;2.28;;;1.20;;
35803;SDS011;21924;51.934;7.414;2022-07-23T12:13:30;3.63;;;1.40;;
35803;SDS011;21924;51.934;7.414;2022-07-23T12:16:15;5.72;;;1.35;;
35803;SDS011;21924;51.934;7.414;2022-07-23T12:18:59;3.63;;;1.40;;
35803;SDS011;21924;51.934;7.414;2022-07-23T12:21:43;1.38;;;1.23;;
35803;SDS011;21924;51.934;7.414;2022-07-23T12:24:28;4.47;;;1.27;;
35803;SDS011;21924;51.934;7.414;2022-07-23T12:27:12;4.80;;;1.17;;
35803;SDS011;21924;51.934;7.414;2022-07-23T12:29:57;2.70;;;1.08;;
35803;SDS011;21924;51.934;7.414;2022-07-23T12:32:43;2.53;;;1.23;;
35803;SDS011;21924;51.934;7.414;2022-07-23T12:35:36;2.33;;;1.02;;
35803;SDS011;21924;51.934;7.414;2022-07-23T12:38:25;5.80;;;1.30;;
35803;SDS011;21924;51.934;7.414;2022-07-23T12:41:11;1.83;;;1.00;;
35803;SDS011;21924;51.934;7.414;2022-07-23T12:43:55;3.97;;;1.08;;
35803;SDS011;21924;51.934;7.414;2022-07-23T12:46:40;5.53;;;1.15;;
35803;SDS011;21924;51.934;7.414;2022-07-23T12:49:25;2.70;;;1.17;;
35803;SDS011;21924;51.934;7.414;2022-07-23T12:52:16;2.38;;;1.00;;
35803;SDS011;21924;51.934;7.414;2022-07-23T12:55:00;1.77;;;1.17;;
35803;SDS011;21924;51.934;7.414;2022-07-23T12:57:45;3.35;;;1.30;;
35803;SDS011;21924;51.934;7.414;2022-07-23T13:00:30;8.57;;;1.40;;
35803;SDS011;21924;51.934;7.414;2022-07-23T13:03:26;1.83;;;0.95;;
35803;SDS011;21924;51.934;7.414;2022-07-23T13:06:15;2.83;;;1.23;;
35803;SDS011;21924;51.934;7.414;2022-07-23T13:08:59;7.28;;;1.58;;
35803;SDS011;21924;51.934;7.414;2022-07-23T13:11:44;3.80;;;1.27;;
35803;SDS011;21924;51.934;7.414;2022-07-23T13:14:29;6.43;;;1.33;;
35803;SDS011;21924;51.934;7.414;2022-07-23T13:17:14;4.55;;;1.33;;
35803;SDS011;21924;51.934;7.414;2022-07-23T13:19:58;1.73;;;1.23;;
35803;SDS011;21924;51.934;7.414;2022-07-23T13:22:42;2.10;;;1.00;;
35803;SDS011;21924;51.934;7.414;2022-07-23T13:25:27;4.30;;;1.40;;
35803;SDS011;21924;51.934;7.414;2022-07-23T13:28:11;1.48;;;1.13;;
35803;SDS011;21924;51.934;7.414;2022-07-23T13:30:57;2.92;;;1.38;;
35803;SDS011;21924;51.934;7.414;2022-07-23T13:33:41;2.13;;;1.23;;
35803;SDS011;21924;51.934;7.414;2022-07-23T13:36:25;2.40;;;1.08;;
35803;SDS011;21924;51.934;7.414;2022-07-23T13:39:10;5.30;;;1.10;;
35803;SDS011;21924;51.934;7.414;2022-07-23T13:41:54;1.40;;;1.10;;
35803;SDS011;21924;51.934;7.414;2022-07-23T13:44:39;2.92;;;1.17;;
35803;SDS011;21924;51.934;7.414;2022-07-23T13:47:23;4.93;;;1.42;;
35803;SDS011;21924;51.934;7.414;2022-07-23T13:50:08;1.60;;;1.23;;
35803;SDS011;21924;51.934;7.414;2022-07-23T13:52:52;2.60;;;1.35;;
35803;SDS011;21924;51.934;7.414;2022-07-23T13:55:37;3.40;;;1.45;;
35803;SDS011;21924;51.934;7.414;2022-07-23T14:01:06;3.00;;;1.33;;
35803;SDS011;21924;51.934;7.414;2022-07-23T14:03:50;2.55;;;1.38;;
35803;SDS011;21924;51.934;7.414;2022-07-23T14:06:35;3.58;;;1.60;;
35803;SDS011;21924;51.934;7.414;2022-07-23T14:09:19;3.08;;;1.30;;
35803;SDS011;21924;51.934;7.414;2022-07-23T14:12:04;2.85;;;1.58;;
35803;SDS011;21924;51.934;7.414;2022-07-23T14:14:48;3.10;;;1.50;;
35803;SDS011;21924;51.934;7.414;2022-07-23T14:17:33;3.17;;;1.30;;
35803;SDS011;21924;51.934;7.414;2022-07-23T14:20:19;2.17;;;1.70;;
35803;SDS011;21924;51.934;7.414;2022-07-23T14:23:03;1.53;;;1.03;;
35803;SDS011;21924;51.934;7.414;2022-07-23T14:25:47;2.22;;;1.40;;
35803;SDS011;21924;51.934;7.414;2022-07-23T14:28:32;2.20;;;1.02;;
35803;SDS011;21924;51.934;7.414;2022-07-23T14:31:17;6.80;;;1.50;;
35803;SDS011;21924;51.934;7.414;2022-07-23T14:34:01;4.07;;;1.27;;
35803;SDS011;21924;51.934;7.414;2022-07-23T14:36:45;4.80;;;1.30;;
35803;SDS011;21924;51.934;7.414;2022-07-23T14:39:30;2.40;;;1.20;;
35803;SDS011;21924;51.934;7.414;2022-07-23T14:42:14;2.05;;;1.05;;
35803;SDS011;21924;51.934;7.414;2022-07-23T14:44:58;1.98;;;1.00;;
35803;SDS011;21924;51.934;7.414;2022-07-23T14:47:42;2.00;;;0.90;;
35803;SDS011;21924;51.934;7.414;2022-07-23T14:50:27;1.33;;;0.90;;
35803;SDS011;21924;51.934;7.414;2022-07-23T14:53:11;20.67;;;2.95;;
35803;SDS011;21924;51.934;7.414;2022-07-23T14:55:55;3.15;;;1.20;;
35803;SDS011;21924;51.934;7.414;2022-07-23T14:58:43;1.85;;;1.00;;
35803;SDS011;21924;51.934;7.414;2022-07-23T15:01:27;3.93;;;1.30;;
35803;SDS011;21924;51.934;7.414;2022-07-23T15:04:11;5.03;;;1.23;;
35803;SDS011;21924;51.934;7.414;2022-07-23T15:06:56;2.80;;;0.93;;
35803;SDS011;21924;51.934;7.414;2022-07-23T15:09:40;3.28;;;1.67;;
35803;SDS011;21924;51.934;7.414;2022-07-23T15:12:24;3.30;;;1.30;;
35803;SDS011;21924;51.934;7.414;2022-07-23T15:15:09;7.10;;;1.15;;
35803;SDS011;21924;51.934;7.414;2022-07-23T15:17:53;2.15;;;1.50;;
35803;SDS011;21924;51.934;7.414;2022-07-23T15:20:37;4.47;;;1.80;;
35803;SDS011;21924;51.934;7.414;2022-07-23T15:23:22;7.05;;;1.38;;
35803;SDS011;21924;51.934;7.414;2022-07-23T15:26:06;1.92;;;1.33;;
35803;SDS011;21924;51.934;7.414;2022-07-23T15:28:51;3.30;;;1.63;;
35803;SDS011;21924;51.934;7.414;2022-07-23T15:31:36;5.43;;;1.30;;
35803;SDS011;21924;51.934;7.414;2022-07-23T15:34:20;2.15;;;1.48;;
35803;SDS011;21924;51.934;7.414;2022-07-23T15:37:05;3.15;;;1.10;;
35803;SDS011;21924;51.934;7.414;2022-07-23T15:39:49;2.08;;;1.30;;
35803;SDS011;21924;51.934;7.414;2022-07-23T15:42:34;2.60;;;1.47;;
35803;SDS011;21924;51.934;7.414;2022-07-23T15:45:18;3.35;;;1.60;;
35803;SDS011;21924;51.934;7.414;2022-07-23T15:48:02;12.07;;;1.92;;
35803;SDS011;21924;51.934;7.414;2022-07-23T15:50:47;2.50;;;1.58;;
35803;SDS011;21924;51.934;7.414;2022-07-23T15:53:32;13.85;;;2.45;;
35803;SDS011;21924;51.934;7.414;2022-07-23T15:56:17;4.35;;;1.80;;
35803;SDS011;21924;51.934;7.414;2022-07-23T15:59:01;3.85;;;1.70;;
35803;SDS011;21924;51.934;7.414;2022-07-23T16:01:46;3.40;;;1.80;;
35803;SDS011;21924;51.934;7.414;2022-07-23T16:04:30;2.45;;;1.70;;
35803;SDS011;21924;51.934;7.414;2022-07-23T16:07:19;6.55;;;1.75;;
35803;SDS011;21924;51.934;7.414;2022-07-23T16:10:04;4.30;;;1.90;;
35803;SDS011;21924;51.934;7.414;2022-07-23T16:12:49;3.05;;;1.83;;
35803;SDS011;21924;51.934;7.414;2022-07-23T16:15:34;4.75;;;1.73;;
35803;SDS011;21924;51.934;7.414;2022-07-23T16:18:19;3.70;;;2.03;;
35803;SDS011;21924;51.934;7.414;2022-07-23T16:21:08;3.63;;;2.00;;
35803;SDS011;21924;51.934;7.414;2022-07-23T16:23:53;2.65;;;1.60;;
35803;SDS011;21924;51.934;7.414;2022-07-23T16:26:37;4.43;;;2.10;;
35803;SDS011;21924;51.934;7.414;2022-07-23T16:29:21;2.75;;;1.65;;
35803;SDS011;21924;51.934;7.414;2022-07-23T16:32:06;7.05;;;2.28;;
35803;SDS011;21924;51.934;7.414;2022-07-23T16:34:50;4.45;;;2.10;;
35803;SDS011;21924;51.934;7.414;2022-07-23T16:37:34;3.85;;;1.98;;
35803;SDS011;21924;51.934;7.414;2022-07-23T16:40:19;12.30;;;1.80;;
35803;SDS011;21924;51.934;7.414;2022-07-23T16:43:03;4.43;;;2.13;;
35803;SDS011;21924;51.934;7.414;2022-07-23T16:45:48;3.75;;;1.77;;
35803;SDS011;21924;51.934;7.414;2022-07-23T16:48:32;5.72;;;2.30;;
35803;SDS011;21924;51.934;7.414;2022-07-23T16:51:17;5.25;;;1.70;;
35803;SDS011;21924;51.934;7.414;2022-07-23T16:54:01;4.43;;;1.73;;
35803;SDS011;21924;51.934;7.414;2022-07-23T16:56:46;2.60;;;1.30;;
35803;SDS011;21924;51.934;7.414;2022-07-23T16:59:30;3.58;;;1.90;;
35803;SDS011;21924;51.934;7.414;2022-07-23T17:02:14;3.20;;;1.95;;
35803;SDS011;21924;51.934;7.414;2022-07-23T17:04:59;2.63;;;1.90;;